GNY weather

Şanlıurfa GAP Airport
Şanlıurfa, Şanlıurfa Province, Turkey

Public forecast

Using degrees Celsius for public forecast. Weather courtesy of forecast.io.

METAR (pilot weather report)

Retrieved 2019/06/27 00:20 UTC (14 minutes ago):

LTCS 270020Z VRB02KT CAVOK 28/12 Q1010 RMK RWY22 VRB01KT

TAF (pilot weather forecast)

Forecast is more than 12 hours old.

Retrieved 2019/06/26 00:00 UTC (1 day ago):

TAF LTCS 262240Z 2700/2724 33008KT CAVOK BECMG 2708/2710 27012KT BECMG 2716/2718 VRB02KT